»·PEaware :: N5954W KHMT-KMYF

N5954W :: KHMT-KMYF

FLIGHT INFORMATION

Flight Status: Arrived
Operator: Privately registered:
United States
More flights under this callsign
Pilot: Joshua M. (19482)
Aircraft: Unknown
(LEG2)
More flights by this aircraft type
Origin: KHMT Hemet-Ryan
United States
Destination: KMYF Montgomery
United States
More flights between these airports :: More routes between these airports
Route: PDZ V186 HAILE V66 MZB
File this flight plan on PilotEdge
Remarks: Outdated NAV Default XPlane
Altitude:
(Current/Filed)
9,000ft
Speed:
(Current/Filed)
150kts
Departed: 09-Aug-18 08:23 PM
Arrived: 09-Aug-18 09:08 PM
Distance/Time
Traveled:
55nm/0:45
Distance/Time
To Go:
Arrived

Flight Plot

Page will automatically refresh every two minutes.

Flight plan parsing failed; only flown route is shown


Map Options




Map Legend


Flown Route
Filed Route
Departure Airport
Arrival Airport
Navaid (VOR, NDB)
Fix

Horizontal Profiles

Position Reports

Time Latitude Longitude Heading Altitude Ground
Speed
09-Aug-18 20:14 33.731334 -117.019170 243 1516ft 0kts
09-Aug-18 20:15 33.731334 -117.019170 243 1516ft 0kts
09-Aug-18 20:16 33.731295 -117.019266 252 1516ft 3kts
09-Aug-18 20:17 33.731289 -117.019367 279 1516ft 0kts
09-Aug-18 20:18 33.731289 -117.019367 279 1516ft 0kts
09-Aug-18 20:19 33.731289 -117.019367 279 1516ft 0kts
09-Aug-18 20:20 33.731289 -117.019367 279 1516ft 0kts
09-Aug-18 20:21 33.731927 -117.019787 337 1516ft 8kts
09-Aug-18 20:22 33.734066 -117.019574 73 1516ft 14kts
09-Aug-18 20:23 33.735819 -117.016339 343 1516ft 15kts
09-Aug-18 20:24 33.727978 -117.034587 241 1717ft 121kts
09-Aug-18 20:25 33.710547 -117.069636 240 2592ft 139kts
09-Aug-18 20:26 33.716711 -117.104757 304 3516ft 132kts
09-Aug-18 20:27 33.733130 -117.138772 303 4441ft 132kts
09-Aug-18 20:28 33.748026 -117.169965 303 5241ft 132kts
09-Aug-18 20:29 33.763655 -117.202812 303 6038ft 132kts
09-Aug-18 20:30 33.779386 -117.237348 283 6815ft 135kts
09-Aug-18 20:31 33.758120 -117.254212 162 7487ft 132kts
09-Aug-18 20:32 33.725780 -117.244289 160 8217ft 131kts
09-Aug-18 20:33 33.694355 -117.234009 160 8885ft 132kts
09-Aug-18 20:34 33.659852 -117.222464 160 8939ft 167kts
09-Aug-18 20:35 33.619277 -117.208894 161 8932ft 184kts
09-Aug-18 20:36 33.579844 -117.195723 161 8932ft 185kts
09-Aug-18 20:37 33.532801 -117.180008 161 8930ft 192kts
09-Aug-18 20:38 33.491077 -117.166252 161 8972ft 191kts
09-Aug-18 20:39 33.450010 -117.155726 167 8955ft 194kts
09-Aug-18 20:40 33.416444 -117.148531 167 8951ft 194kts
09-Aug-18 20:41 33.384613 -117.141640 167 8912ft 188kts
09-Aug-18 20:42 33.345204 -117.133349 167 8956ft 190kts
09-Aug-18 20:43 33.326971 -117.129243 165 8956ft 191kts
09-Aug-18 20:44 33.298706 -117.121321 162 8958ft 192kts
09-Aug-18 20:45 33.261411 -117.107821 158 8961ft 192kts
09-Aug-18 20:46 33.224101 -117.098608 168 8962ft 194kts
09-Aug-18 20:47 33.188281 -117.091686 168 8964ft 194kts
09-Aug-18 20:48 33.159850 -117.078020 150 8975ft 192kts
09-Aug-18 20:49 33.117239 -117.051976 150 8558ft 197kts
09-Aug-18 20:50 33.088406 -117.034329 150 8238ft 187kts
09-Aug-18 20:51 33.048689 -117.010020 150 7811ft 186kts
09-Aug-18 20:52 33.026208 -116.996309 149 7447ft 147kts
09-Aug-18 20:53 32.986291 -116.971856 150 7093ft 196kts
09-Aug-18 20:54 32.954750 -116.952609 150 6810ft 210kts
09-Aug-18 20:55 32.913327 -116.927364 151 6409ft 205kts
09-Aug-18 20:56 32.878158 -116.905937 151 6047ft 200kts
09-Aug-18 20:57 32.838134 -116.881575 151 5633ft 198kts
09-Aug-18 20:58 32.797781 -116.857038 151 5216ft 198kts
09-Aug-18 20:59 32.752780 -116.861826 209 4692ft 178kts
09-Aug-18 21:00 32.723266 -116.892690 276 4138ft 136kts
09-Aug-18 21:01 32.732480 -116.926502 294 3673ft 112kts
09-Aug-18 21:02 32.743344 -116.956174 297 3213ft 135kts
09-Aug-18 21:03 32.759699 -116.996604 295 2608ft 153kts
09-Aug-18 21:04 32.774956 -117.035148 295 1806ft 132kts
09-Aug-18 21:05 32.786384 -117.064094 295 1354ft 91kts
09-Aug-18 21:06 32.794205 -117.086881 295 1291ft 91kts
09-Aug-18 21:07 32.802255 -117.109799 296 1085ft 92kts
09-Aug-18 21:08 32.811593 -117.132097 296 526ft 94kts
09-Aug-18 21:09 32.815214 -117.142325 244 430ft 0kts
09-Aug-18 21:10 32.814933 -117.142164 116 429ft 11kts

Navigation Log

Ident Type
Flight plan parsing failed, navigation log unavailable